createdAt,value
2019-03-24T00:00:19.977Z,7.63
2019-03-24T00:02:48.586Z,7.55
2019-03-24T00:05:16.875Z,7.50
2019-03-24T00:07:45.205Z,7.43
2019-03-24T00:10:13.912Z,7.46
2019-03-24T00:12:42.240Z,7.28
2019-03-24T00:15:10.956Z,7.25
2019-03-24T00:17:39.326Z,7.34
2019-03-24T00:20:10.107Z,7.37
2019-03-24T00:22:38.118Z,7.61
2019-03-24T00:25:08.286Z,7.61
2019-03-24T00:27:36.594Z,7.54
2019-03-24T00:30:07.299Z,7.09
2019-03-24T00:32:35.609Z,6.89
2019-03-24T00:35:05.876Z,6.94
2019-03-24T00:37:34.189Z,6.97
2019-03-24T00:40:02.882Z,7.10
2019-03-24T00:42:31.198Z,7.17
2019-03-24T00:44:59.507Z,7.19
2019-03-24T00:47:27.845Z,7.24
2019-03-24T00:49:56.222Z,7.19
2019-03-24T00:52:24.553Z,7.13
2019-03-24T00:54:53.178Z,6.95
2019-03-24T00:57:21.551Z,6.86
2019-03-24T00:59:49.880Z,6.95
2019-03-24T01:02:18.215Z,7.07
2019-03-24T01:04:46.543Z,7.03
2019-03-24T01:07:15.299Z,7.12
2019-03-24T01:09:43.639Z,6.76
2019-03-24T01:12:12.220Z,6.69
2019-03-24T01:14:40.634Z,6.66
2019-03-24T01:17:08.938Z,6.66
2019-03-24T01:19:37.615Z,6.74
2019-03-24T01:22:06.025Z,6.71
2019-03-24T01:24:34.334Z,6.68
2019-03-24T01:27:02.658Z,6.51
2019-03-24T01:29:30.960Z,6.45
2019-03-24T01:31:59.350Z,6.44
2019-03-24T01:34:27.662Z,6.42
2019-03-24T01:36:55.978Z,6.19
2019-03-24T01:39:24.356Z,6.11
2019-03-24T01:41:52.681Z,6.11
2019-03-24T01:44:21.318Z,6.24
2019-03-24T01:46:49.639Z,6.36
2019-03-24T01:49:17.965Z,6.24
2019-03-24T01:51:46.278Z,6.27
2019-03-24T01:54:14.602Z,6.12
2019-03-24T01:56:43.024Z,5.94
2019-03-24T01:59:11.464Z,5.93
2019-03-24T02:01:39.766Z,6.02
2019-03-24T02:04:08.073Z,5.99
2019-03-24T02:06:38.567Z,5.95
2019-03-24T02:09:08.047Z,5.97
2019-03-24T02:11:36.369Z,6.03
2019-03-24T02:14:04.917Z,6.07
2019-03-24T02:16:33.236Z,6.05
2019-03-24T02:19:01.551Z,5.96
2019-03-24T02:21:29.855Z,5.85
2019-03-24T02:23:58.510Z,5.74
2019-03-24T02:26:26.813Z,5.67
2019-03-24T02:28:55.212Z,5.73
2019-03-24T02:31:23.581Z,5.63
2019-03-24T02:33:52.239Z,5.65
2019-03-24T02:36:20.542Z,5.52
2019-03-24T02:38:48.869Z,5.56
2019-03-24T02:41:17.480Z,5.65
2019-03-24T02:43:45.803Z,5.60
2019-03-24T02:46:24.283Z,5.39
2019-03-24T02:48:44.157Z,5.39
2019-03-24T02:51:12.575Z,5.47
2019-03-24T02:53:40.842Z,5.29
2019-03-24T02:56:09.619Z,5.36
2019-03-24T02:58:37.933Z,5.37
2019-03-24T03:01:06.325Z,5.38
2019-03-24T03:03:34.629Z,5.34
2019-03-24T03:06:03.138Z,5.31
2019-03-24T03:08:31.462Z,5.37
2019-03-24T03:10:59.770Z,5.39
2019-03-24T03:13:28.103Z,5.25
2019-03-24T03:15:56.405Z,5.23
2019-03-24T03:18:24.726Z,5.16
2019-03-24T03:20:53.101Z,5.01
2019-03-24T03:23:21.526Z,4.96
2019-03-24T03:25:49.831Z,5.03
2019-03-24T03:28:18.138Z,5.05
2019-03-24T03:30:46.463Z,5.01
2019-03-24T03:33:15.146Z,5.18
2019-03-24T03:35:43.580Z,5.14
2019-03-24T03:38:11.926Z,5.08
2019-03-24T03:40:40.276Z,5.07
2019-03-24T03:43:08.834Z,5.13
2019-03-24T03:45:39.220Z,5.12
2019-03-24T03:48:07.191Z,5.09
2019-03-24T03:50:35.568Z,5.20
2019-03-24T03:53:04.244Z,5.19
2019-03-24T03:55:32.615Z,5.17
2019-03-24T03:58:00.956Z,5.22
2019-03-24T04:00:34.277Z,5.19
2019-03-24T04:03:03.137Z,5.10
2019-03-24T04:05:31.783Z,5.03
2019-03-24T04:08:01.395Z,4.99
2019-03-24T04:10:29.723Z,4.93
2019-03-24T04:12:58.040Z,5.04
2019-03-24T04:15:26.429Z,4.96
2019-03-24T04:17:54.819Z,5.04
2019-03-24T04:20:23.132Z,5.11
2019-03-24T04:22:51.577Z,5.39
2019-03-24T04:25:19.895Z,4.73
2019-03-24T04:27:48.222Z,4.61
2019-03-24T04:30:17.010Z,4.62
2019-03-24T04:32:45.325Z,4.53
2019-03-24T04:35:13.999Z,4.57
2019-03-24T04:37:42.312Z,4.32
2019-03-24T04:40:10.786Z,4.20
2019-03-24T04:42:39.115Z,4.12
2019-03-24T04:45:07.892Z,4.11
2019-03-24T04:47:36.220Z,4.20
2019-03-24T04:50:06.764Z,4.20
2019-03-24T04:52:35.066Z,4.21
2019-03-24T04:55:03.741Z,4.13
2019-03-24T04:57:32.050Z,4.20
2019-03-24T05:00:00.488Z,4.27
2019-03-24T05:02:28.829Z,4.30
2019-03-24T05:04:57.205Z,4.35
2019-03-24T05:07:25.798Z,4.19
2019-03-24T05:09:54.579Z,4.18
2019-03-24T05:12:22.874Z,4.18
2019-03-24T05:14:51.181Z,4.17
2019-03-24T05:17:27.097Z,4.04
2019-03-24T05:19:49.632Z,4.07
2019-03-24T05:22:17.960Z,4.19
2019-03-24T05:24:47.271Z,4.29
2019-03-24T05:27:15.792Z,4.46
2019-03-24T05:29:44.099Z,4.44
2019-03-24T05:32:12.406Z,4.45
2019-03-24T05:34:40.738Z,4.37
2019-03-24T05:37:09.118Z,4.41
2019-03-24T05:39:37.757Z,4.57
2019-03-24T05:42:06.143Z,4.60
2019-03-24T05:44:34.466Z,4.62
2019-03-24T05:47:02.774Z,4.73
2019-03-24T05:49:31.093Z,4.74
2019-03-24T05:51:59.411Z,4.80
2019-03-24T05:54:27.748Z,4.68
2019-03-24T05:56:56.332Z,4.86
2019-03-24T05:59:24.645Z,4.87
2019-03-24T06:01:52.972Z,4.93
2019-03-24T06:04:21.682Z,5.03
2019-03-24T06:06:50.011Z,5.24
2019-03-24T06:09:18.314Z,5.29
2019-03-24T06:11:46.641Z,5.40
2019-03-24T06:14:15.306Z,5.44
2019-03-24T06:16:43.622Z,5.48
2019-03-24T06:19:11.970Z,5.50
2019-03-24T06:21:40.281Z,5.52
2019-03-24T06:24:08.625Z,5.71
2019-03-24T06:26:36.931Z,5.78
2019-03-24T06:29:05.231Z,5.79
2019-03-24T06:31:33.554Z,5.80
2019-03-24T06:34:01.933Z,5.98
2019-03-24T06:36:30.541Z,6.06
2019-03-24T06:38:58.850Z,6.31
2019-03-24T06:41:27.171Z,6.23
2019-03-24T06:43:55.479Z,6.31
2019-03-24T06:46:23.871Z,6.38
2019-03-24T06:48:52.244Z,6.43
2019-03-24T06:51:20.586Z,6.50
2019-03-24T06:53:48.892Z,6.78
2019-03-24T06:56:17.205Z,6.63
2019-03-24T06:58:45.534Z,6.81
2019-03-24T07:01:13.839Z,6.79
2019-03-24T07:03:42.160Z,6.93
2019-03-24T07:06:10.481Z,7.00
2019-03-24T07:08:38.815Z,7.22
2019-03-24T07:11:12.368Z,7.26
2019-03-24T07:13:37.187Z,7.28
2019-03-24T07:16:05.883Z,7.43
2019-03-24T07:18:34.203Z,7.58
2019-03-24T07:21:02.527Z,7.79
2019-03-24T07:23:30.833Z,7.91
2019-03-24T07:26:00.248Z,8.15
2019-03-24T07:28:28.632Z,8.11
2019-03-24T07:30:57.336Z,8.31
2019-03-24T07:33:25.660Z,8.37
2019-03-24T07:35:54.379Z,8.52
2019-03-24T07:38:23.056Z,8.62
2019-03-24T07:40:51.431Z,8.79
2019-03-24T07:43:19.762Z,8.89
2019-03-24T07:45:48.067Z,9.11
2019-03-24T07:48:19.336Z,9.28
2019-03-24T07:50:47.134Z,9.34
2019-03-24T07:53:15.463Z,9.46
2019-03-24T07:55:43.913Z,9.39
2019-03-24T07:58:12.239Z,9.61
2019-03-24T08:00:40.629Z,9.79
2019-03-24T08:03:09.037Z,9.83
2019-03-24T08:05:37.386Z,10.07
2019-03-24T08:08:05.695Z,10.25
2019-03-24T08:10:34.023Z,10.32
2019-03-24T08:13:02.405Z,10.05
2019-03-24T08:15:30.731Z,10.39
2019-03-24T08:17:59.200Z,10.57
2019-03-24T08:20:27.616Z,10.40
2019-03-24T08:22:55.995Z,10.69
2019-03-24T08:25:24.369Z,10.86
2019-03-24T08:27:52.766Z,10.96
2019-03-24T08:30:32.399Z,10.96
2019-03-24T08:33:00.806Z,11.01
2019-03-24T08:35:29.193Z,11.07
2019-03-24T08:37:57.498Z,11.03
2019-03-24T08:40:26.208Z,11.43
2019-03-24T08:42:54.592Z,11.33
2019-03-24T08:45:30.312Z,11.53
2019-03-24T08:47:59.460Z,11.53
2019-03-24T08:50:28.064Z,11.78
2019-03-24T08:52:56.741Z,11.67
2019-03-24T08:55:25.155Z,11.94
2019-03-24T08:57:53.525Z,12.09
2019-03-24T09:00:30.180Z,11.94
2019-03-24T09:02:52.304Z,12.11
2019-03-24T09:05:20.617Z,12.41
2019-03-24T09:07:48.958Z,12.49
2019-03-24T09:10:17.328Z,12.74
2019-03-24T09:12:45.654Z,12.90
2019-03-24T09:15:14.403Z,12.78
2019-03-24T09:17:42.824Z,13.24
2019-03-24T09:20:11.389Z,13.47
2019-03-24T09:22:39.717Z,13.49
2019-03-24T09:25:09.570Z,13.48
2019-03-24T09:27:38.041Z,13.52
2019-03-24T09:30:12.445Z,13.62
2019-03-24T09:32:40.744Z,14.08
2019-03-24T09:35:09.672Z,13.99
2019-03-24T09:37:38.453Z,13.87
2019-03-24T09:40:09.302Z,14.31
2019-03-24T09:42:37.610Z,14.41
2019-03-24T09:45:06.372Z,14.04
2019-03-24T09:47:34.632Z,14.46
2019-03-24T09:50:03.487Z,14.49
2019-03-24T09:52:31.802Z,14.70
2019-03-24T09:55:00.401Z,14.76
2019-03-24T09:57:28.805Z,15.03
2019-03-24T09:59:57.110Z,15.37
2019-03-24T10:02:25.436Z,15.17
2019-03-24T10:04:54.916Z,15.15
2019-03-24T10:07:23.608Z,15.78
2019-03-24T10:09:51.939Z,15.88
2019-03-24T10:12:20.249Z,15.80
2019-03-24T10:14:48.884Z,15.67
2019-03-24T10:17:17.452Z,15.79
2019-03-24T10:19:46.056Z,16.05
2019-03-24T10:22:14.642Z,15.85
2019-03-24T10:24:42.975Z,16.23
2019-03-24T10:27:11.374Z,16.08
2019-03-24T10:29:39.705Z,16.44
2019-03-24T10:32:08.020Z,17.03
2019-03-24T10:34:36.378Z,17.20
2019-03-24T10:37:04.761Z,17.33
2019-03-24T10:39:33.095Z,17.09
2019-03-24T10:42:01.630Z,17.57
2019-03-24T10:44:29.910Z,17.47
2019-03-24T10:46:58.237Z,18.15
2019-03-24T10:49:26.854Z,18.04
2019-03-24T10:51:55.267Z,17.97
2019-03-24T10:54:23.568Z,17.83
2019-03-24T10:56:51.934Z,18.21
2019-03-24T10:59:20.582Z,18.12
2019-03-24T11:01:49.263Z,18.30
2019-03-24T11:04:17.615Z,18.45
2019-03-24T11:06:45.986Z,18.03
2019-03-24T11:09:14.519Z,18.59
2019-03-24T11:11:42.857Z,18.70
2019-03-24T11:14:11.184Z,18.65
2019-03-24T11:16:39.491Z,17.85
2019-03-24T11:19:08.036Z,19.45
2019-03-24T11:21:36.344Z,19.66
2019-03-24T11:24:05.115Z,18.84
2019-03-24T11:26:33.445Z,19.93
2019-03-24T11:29:01.769Z,20.07
2019-03-24T11:31:30.230Z,19.10
2019-03-24T11:33:58.606Z,19.77
2019-03-24T11:36:26.969Z,20.56
2019-03-24T11:38:55.285Z,21.51
2019-03-24T11:41:23.627Z,21.16
2019-03-24T11:43:51.932Z,19.63
2019-03-24T11:46:20.314Z,21.90
2019-03-24T11:48:48.640Z,22.61
2019-03-24T11:51:16.957Z,22.09
2019-03-24T11:53:45.280Z,21.81
2019-03-24T11:56:13.593Z,23.51
2019-03-24T11:58:42.026Z,23.06
2019-03-24T12:01:10.308Z,22.59
2019-03-24T12:03:38.861Z,23.42
2019-03-24T12:06:14.337Z,23.45
2019-03-24T12:08:38.829Z,24.25
2019-03-24T12:11:07.220Z,24.39
2019-03-24T12:13:35.541Z,25.31
2019-03-24T12:16:03.927Z,24.36
2019-03-24T12:18:32.306Z,24.53
2019-03-24T12:21:00.636Z,24.35
2019-03-24T12:23:29.048Z,23.89
2019-03-24T12:25:57.452Z,23.84
2019-03-24T12:28:25.756Z,24.88
2019-03-24T12:30:54.066Z,25.14
2019-03-24T12:33:22.486Z,24.64
2019-03-24T12:35:50.792Z,24.06
2019-03-24T12:38:19.113Z,24.74
2019-03-24T12:40:47.416Z,25.62
2019-03-24T12:43:19.758Z,23.96
2019-03-24T12:45:45.795Z,23.45
2019-03-24T12:48:14.567Z,24.98
2019-03-24T12:50:42.942Z,24.40
2019-03-24T12:53:11.281Z,24.97
2019-03-24T12:55:39.590Z,24.25
2019-03-24T12:58:07.903Z,24.49
2019-03-24T13:00:40.260Z,24.04
2019-03-24T13:03:09.006Z,23.47
2019-03-24T13:05:37.471Z,23.22
2019-03-24T13:08:11.650Z,23.40
2019-03-24T13:10:41.464Z,23.35
2019-03-24T13:13:10.807Z,23.99
2019-03-24T13:15:40.714Z,23.39
2019-03-24T13:18:09.210Z,24.06
2019-03-24T13:20:38.731Z,23.65
2019-03-24T13:23:07.561Z,23.14
2019-03-24T13:25:36.409Z,23.64
2019-03-24T13:28:05.009Z,23.51
2019-03-24T13:30:33.372Z,23.28
2019-03-24T13:33:01.705Z,22.99
2019-03-24T13:35:30.329Z,23.95
2019-03-24T13:37:58.661Z,24.83
2019-03-24T13:40:26.979Z,23.09
2019-03-24T13:42:55.360Z,23.66
2019-03-24T13:45:23.787Z,24.31
2019-03-24T13:47:52.097Z,24.53
2019-03-24T13:50:30.691Z,22.10
2019-03-24T13:52:50.465Z,24.27
2019-03-24T13:55:18.868Z,24.66
2019-03-24T13:57:47.242Z,25.59
2019-03-24T14:00:17.822Z,24.32
2019-03-24T14:02:46.642Z,24.57
2019-03-24T14:05:15.137Z,23.98
2019-03-24T14:07:43.464Z,24.53
2019-03-24T14:10:11.910Z,24.92
2019-03-24T14:12:40.238Z,25.54
2019-03-24T14:15:09.206Z,24.11
2019-03-24T14:17:38.449Z,23.40
2019-03-24T14:20:09.063Z,24.82
2019-03-24T14:22:37.888Z,24.49
2019-03-24T14:25:07.333Z,24.87
2019-03-24T14:27:36.008Z,24.59
2019-03-24T14:30:07.554Z,24.15
2019-03-24T14:32:35.922Z,23.86
2019-03-24T14:35:06.246Z,24.58
2019-03-24T14:37:34.545Z,25.16
2019-03-24T14:40:04.116Z,24.68
2019-03-24T14:42:32.421Z,24.69
2019-03-24T14:45:01.102Z,24.85
2019-03-24T14:47:29.806Z,24.45
2019-03-24T14:49:58.174Z,25.62
2019-03-24T14:52:26.481Z,24.52
2019-03-24T14:54:54.885Z,25.12
2019-03-24T14:57:23.183Z,24.94
2019-03-24T14:59:51.624Z,23.86
2019-03-24T15:02:20.005Z,23.19
2019-03-24T15:04:48.352Z,24.08
2019-03-24T15:07:16.937Z,24.62
2019-03-24T15:09:45.255Z,24.01
2019-03-24T15:12:13.658Z,25.03
2019-03-24T15:14:42.131Z,23.41
2019-03-24T15:17:10.487Z,22.59
2019-03-24T15:19:39.163Z,22.40
2019-03-24T15:22:07.467Z,21.81
2019-03-24T15:24:35.796Z,20.98
2019-03-24T15:27:04.143Z,20.91
2019-03-24T15:29:32.453Z,20.72
2019-03-24T15:32:00.772Z,21.06
2019-03-24T15:34:29.460Z,21.70
2019-03-24T15:36:57.781Z,21.57
2019-03-24T15:39:26.408Z,21.24
2019-03-24T15:41:54.734Z,21.18
2019-03-24T15:44:23.109Z,21.61
2019-03-24T15:46:51.482Z,20.99
2019-03-24T15:49:19.881Z,21.22
2019-03-24T15:51:48.316Z,20.95
2019-03-24T15:54:17.122Z,21.13
2019-03-24T15:56:45.423Z,21.14
2019-03-24T15:59:13.853Z,21.37
2019-03-24T16:01:42.159Z,21.26
2019-03-24T16:04:10.467Z,21.34
2019-03-24T16:06:38.921Z,20.42
2019-03-24T16:09:08.186Z,21.02
2019-03-24T16:11:36.956Z,21.29
2019-03-24T16:14:05.263Z,20.63
2019-03-24T16:16:33.587Z,20.63
2019-03-24T16:19:02.109Z,20.75
2019-03-24T16:21:31.368Z,20.82
2019-03-24T16:24:00.801Z,20.57
2019-03-24T16:26:29.186Z,20.00
2019-03-24T16:28:57.512Z,20.14
2019-03-24T16:31:25.902Z,20.24
2019-03-24T16:33:54.223Z,20.02
2019-03-24T16:36:22.881Z,19.84
2019-03-24T16:38:51.576Z,19.88
2019-03-24T16:41:20.259Z,19.37
2019-03-24T16:43:48.661Z,19.58
2019-03-24T16:46:17.047Z,19.22
2019-03-24T16:48:45.430Z,18.96
2019-03-24T16:51:13.789Z,18.88
2019-03-24T16:53:42.205Z,18.42
2019-03-24T16:56:10.513Z,18.33
2019-03-24T16:58:38.939Z,18.11
2019-03-24T17:01:07.621Z,18.14
2019-03-24T17:03:35.928Z,17.98
2019-03-24T17:06:04.490Z,17.90
2019-03-24T17:08:33.177Z,17.75
2019-03-24T17:11:01.498Z,17.59
2019-03-24T17:13:29.808Z,17.39
2019-03-24T17:15:58.180Z,17.28
2019-03-24T17:18:27.115Z,17.32
2019-03-24T17:20:55.489Z,17.24
2019-03-24T17:23:23.895Z,17.12
2019-03-24T17:25:52.221Z,16.94
2019-03-24T17:28:20.546Z,16.93
2019-03-24T17:30:48.922Z,16.83
2019-03-24T17:33:17.269Z,16.77
2019-03-24T17:35:45.702Z,16.69
2019-03-24T17:38:14.004Z,16.62
2019-03-24T17:40:42.332Z,16.43
2019-03-24T17:43:11.745Z,16.47
2019-03-24T17:45:40.438Z,16.38
2019-03-24T17:48:08.758Z,16.48
2019-03-24T17:50:37.087Z,16.47
2019-03-24T17:53:06.891Z,16.42
2019-03-24T17:55:35.876Z,16.22
2019-03-24T17:58:04.801Z,16.13
2019-03-24T18:00:45.238Z,16.08
2019-03-24T18:03:14.280Z,16.05
2019-03-24T18:05:42.621Z,15.89
2019-03-24T18:08:10.966Z,15.87
2019-03-24T18:10:39.693Z,15.77
2019-03-24T18:13:08.409Z,15.65
2019-03-24T18:15:36.768Z,15.62
2019-03-24T18:18:05.643Z,15.37
2019-03-24T18:20:36.814Z,14.80
2019-03-24T18:23:05.168Z,14.11
2019-03-24T18:25:33.591Z,14.11
2019-03-24T18:28:02.021Z,14.09
2019-03-24T18:30:30.472Z,14.01
2019-03-24T18:32:58.820Z,13.89
2019-03-24T18:35:27.333Z,13.83
2019-03-24T18:37:55.711Z,13.80
2019-03-24T18:40:24.409Z,13.82
2019-03-24T18:42:52.990Z,13.78
2019-03-24T18:45:21.785Z,13.66
2019-03-24T18:47:50.259Z,13.69
2019-03-24T18:50:18.726Z,13.61
2019-03-24T18:52:47.051Z,13.57
2019-03-24T18:55:15.522Z,13.42
2019-03-24T18:57:44.293Z,13.47
2019-03-24T19:00:14.423Z,13.40
2019-03-24T19:02:43.040Z,13.33
2019-03-24T19:05:11.415Z,13.27
2019-03-24T19:07:39.964Z,13.35
2019-03-24T19:10:10.015Z,13.37
2019-03-24T19:12:38.347Z,13.27
2019-03-24T19:15:09.168Z,13.29
2019-03-24T19:17:37.621Z,13.26
2019-03-24T19:20:08.421Z,13.43
2019-03-24T19:22:37.153Z,13.15
2019-03-24T19:25:09.566Z,13.23
2019-03-24T19:27:38.310Z,13.06
2019-03-24T19:30:12.774Z,12.97
2019-03-24T19:32:41.347Z,12.98
2019-03-24T19:35:09.834Z,12.99
2019-03-24T19:37:38.368Z,12.93
2019-03-24T19:40:26.859Z,12.89
2019-03-24T19:42:55.338Z,12.93
2019-03-24T19:45:24.015Z,13.00
2019-03-24T19:47:52.646Z,13.04
2019-03-24T19:50:21.028Z,13.01
2019-03-24T19:52:49.599Z,12.95
2019-03-24T19:55:18.267Z,12.96
2019-03-24T19:57:47.461Z,12.93
2019-03-24T20:00:16.180Z,12.93
2019-03-24T20:02:45.069Z,12.89
2019-03-24T20:05:13.923Z,12.87
2019-03-24T20:07:47.919Z,12.90
2019-03-24T20:10:12.836Z,13.00
2019-03-24T20:12:41.331Z,12.98
2019-03-24T20:15:09.933Z,13.02
2019-03-24T20:17:38.314Z,13.04
2019-03-24T20:20:06.989Z,13.06
2019-03-24T20:22:35.667Z,13.06
2019-03-24T20:25:06.330Z,12.89
2019-03-24T20:27:34.672Z,12.91
2019-03-24T20:30:04.309Z,12.94
2019-03-24T20:32:33.337Z,12.87
2019-03-24T20:35:02.204Z,12.95
2019-03-24T20:37:31.875Z,12.95
2019-03-24T20:40:00.391Z,12.69
2019-03-24T20:42:28.963Z,12.63
2019-03-24T20:44:57.278Z,12.55
2019-03-24T20:47:25.593Z,12.69
2019-03-24T20:49:54.425Z,12.69
2019-03-24T20:52:22.768Z,12.59
2019-03-24T20:54:51.177Z,12.69
2019-03-24T20:57:19.764Z,12.60
2019-03-24T20:59:48.097Z,12.60
2019-03-24T21:02:16.485Z,12.61
2019-03-24T21:04:44.804Z,12.53
2019-03-24T21:07:13.306Z,12.49
2019-03-24T21:09:41.952Z,12.52
2019-03-24T21:12:10.299Z,12.42
2019-03-24T21:14:38.820Z,12.53
2019-03-24T21:17:07.171Z,12.47
2019-03-24T21:19:35.563Z,12.50
2019-03-24T21:22:04.409Z,12.48
2019-03-24T21:24:32.753Z,12.44
2019-03-24T21:27:01.065Z,12.49
2019-03-24T21:29:29.396Z,12.33
2019-03-24T21:31:57.710Z,12.43
2019-03-24T21:34:26.116Z,12.31
2019-03-24T21:36:54.503Z,12.28
2019-03-24T21:39:22.993Z,12.37
2019-03-24T21:41:51.408Z,12.34
2019-03-24T21:44:19.725Z,12.39
2019-03-24T21:46:48.082Z,12.44
2019-03-24T21:49:16.473Z,12.36
2019-03-24T21:51:45.297Z,12.38
2019-03-24T21:54:13.694Z,12.30
2019-03-24T21:56:42.374Z,12.21
2019-03-24T21:59:10.721Z,12.35
2019-03-24T22:01:39.116Z,12.29
2019-03-24T22:04:07.454Z,12.30
2019-03-24T22:06:35.842Z,12.09
2019-03-24T22:09:06.089Z,12.21
2019-03-24T22:11:34.415Z,12.09
2019-03-24T22:14:02.832Z,12.21
2019-03-24T22:16:31.170Z,12.28
2019-03-24T22:18:59.555Z,12.27
2019-03-24T22:21:28.229Z,12.13
2019-03-24T22:23:56.538Z,12.23
2019-03-24T22:26:24.881Z,12.25
2019-03-24T22:28:53.212Z,12.19
2019-03-24T22:31:21.549Z,12.18
2019-03-24T22:33:50.137Z,12.29
2019-03-24T22:36:18.452Z,12.16
2019-03-24T22:38:46.787Z,12.08
2019-03-24T22:41:15.190Z,12.23
2019-03-24T22:43:43.702Z,12.20
2019-03-24T22:46:12.016Z,12.23
2019-03-24T22:48:40.340Z,12.06
2019-03-24T22:51:08.725Z,12.07
2019-03-24T22:53:37.151Z,11.99
2019-03-24T22:56:05.545Z,11.89
2019-03-24T22:58:33.895Z,11.79
2019-03-24T23:01:02.953Z,11.72
2019-03-24T23:03:31.270Z,11.56
2019-03-24T23:05:59.914Z,11.51
2019-03-24T23:08:28.899Z,11.38
2019-03-24T23:10:57.443Z,11.48
2019-03-24T23:13:26.189Z,11.55
2019-03-24T23:15:54.525Z,11.52
2019-03-24T23:18:22.838Z,11.54
2019-03-24T23:20:51.257Z,11.59
2019-03-24T23:23:19.569Z,11.63
2019-03-24T23:25:48.041Z,11.56
2019-03-24T23:28:16.405Z,11.41
2019-03-24T23:30:44.803Z,11.47
2019-03-24T23:33:13.107Z,11.44
2019-03-24T23:35:41.538Z,11.44
2019-03-24T23:38:09.872Z,11.36
2019-03-24T23:40:38.254Z,11.38
2019-03-24T23:43:07.101Z,11.39
2019-03-24T23:45:35.481Z,11.32
2019-03-24T23:48:04.794Z,11.34
2019-03-24T23:50:33.102Z,11.26
2019-03-24T23:53:01.831Z,11.33
2019-03-24T23:55:30.233Z,11.34
2019-03-24T23:57:58.607Z,11.30
